Daily Summary

Last 30 Days

Daily Data | Pacific/Honolulu
as of 9/28/21 1:38 PM HST
Date Daily Max Temp (°F) Time of Max Temp Daily Min Temp (°F) Time of Min Temp Daily Rain (In) Seasonal Rainfall (In) Wind Spd (mph) Daily Max Wind (mph) Time of Max Wind Max Wind Dir (°) Daily Solar Rad (Cal/cm2) Daily ETo (in) Dew Pt (°F) Max RH (%) Min RH (%) Max Press (inHg) Time of Max Press Min Press (inHg) Time of Min Press Bat Volt Min Day (V)
9/27/21 83.9 1311 75.5 1951 0.03 22.42 7.4 25.5 1336 NNE | 30 504 0.186 69.3 83 63 30.16 0943 30.04 1701 12.8
9/26/21 85.1 1401 77.6 0048 0.01 22.39 8.9 28.0 0703 NNE | 20 492 0.191 70.5 82 60 30.16 2138 30.04 1537 12.7
9/25/21 84.4 1402 72.6 0347 0.12 22.38 7.4 22.6 1332 NE | 35 548 0.197 69.2 86 61 30.11 2203 29.99 1603 12.7
9/24/21 83.5 1203 74.6 0721 0.06 22.26 7.3 24.7 1641 NE | 35 555 0.195 69.5 89 63 30.05 2325 29.93 1454 12.8
9/23/21 83.1 1255 75.5 0721 0.00 22.20 7.3 24.6 1510 NNE | 22 453 0.169 68.9 83 61 30.06 0023 29.96 1758 12.7
9/22/21 83.1 1122 76.6 0548 0.01 22.20 8.8 28.8 1247 NNE | 19 613 0.234 66.5 75 51 30.11 0939 29.98 1603 12.8
9/21/21 83.9 1215 76.7 0619 0.01 22.19 7.8 26.7 1455 NE | 40 491 0.194 67.8 76 61 30.11 2217 29.99 1548 12.8
9/20/21 84.0 1206 76.2 0500 0.00 22.18 8.2 28.8 1408 NE | 42 559 0.215 67.6 79 54 30.08 2225 29.97 1606 12.8
9/19/21 84.0 1324 73.7 0859 0.16 22.18 9.2 27.1 1518 NNE | 33 562 0.211 68.3 88 55 30.11 0857 29.97 1529 12.8
9/18/21 83.3 1407 75.5 0335 0.02 22.02 8.7 29.5 0805 ENE | 78 515 0.204 67.6 78 56 30.13 0904 30.00 1555 12.8
9/17/21 82.9 1212 74.5 0657 0.00 22.00 8.7 27.5 0840 NE | 34 286 0.145 67.8 82 57 30.16 1005 30.06 1409 12.7
9/16/21 86.7 1217 75.6 0418 0.00 22.00 6.9 24.1 1614 NE | 37 492 0.189 70.3 84 61 30.14 2212 29.99 0401 12.7
9/15/21 84.3 1113 73.3 0144 0.11 22.00 5.8 21.5 1507 NE | 53 588 0.202 69.4 89 59 30.07 2308 29.94 1529 12.8
9/14/21 83.1 1359 74.3 0715 0.15 21.89 7.2 26.9 1504 NE | 43 596 0.204 68.7 83 57 30.07 0936 29.93 1624 12.8
9/13/21 83.5 1247 74.2 2302 0.16 21.74 7.5 24.2 2219 NNE | 33 602 0.221 67.8 84 56 30.10 0012 30.00 1606 12.8
9/12/21 83.8 1153 73.6 0650 0.10 21.58 8.1 27.6 1228 NE | 37 522 0.195 68.3 82 58 30.13 0916 29.99 1503 12.8
9/11/21 84.4 1334 74.2 0244 0.06 21.48 5.9 21.5 1411 NNE | 32 584 0.210 68.5 83 58 30.12 0912 30.01 1532 12.8
9/10/21 82.3 1140 74.3 1629 0.09 21.42 3.7 18.2 1231 ENE | 59 283 0.110 68.0 86 57 30.10 2344 30.01 1529 12.7
9/9/21 84.9 1244 77.1 0339 0.00 21.33 5.5 24.7 1148 NNE | 31 567 0.208 67.3 73 56 30.11 0004 30.01 1648 12.8
9/8/21 83.9 1247 75.7 0611 0.00 21.33 8.7 28.2 1437 NNE | 31 617 0.235 67.6 78 55 30.12 2156 30.02 1512 12.7
9/7/21 84.4 1042 75.5 0533 0.00 21.33 5.9 26.4 1502 NE | 37 618 0.220 68.2 77 58 30.11 2154 29.99 1503 12.8
9/6/21 84.5 1316 76.0 0311 0.00 21.33 6.6 24.2 1519 NNE | 24 633 0.228 67.9 76 57 30.09 2153 29.96 1502 12.7
9/5/21 83.8 1405 74.8 0631 0.01 21.33 6.9 26.8 1003 NNE | 23 619 0.220 67.6 78 56 30.05 2248 29.95 1604 12.8
9/4/21 82.0 1418 75.5 1205 0.03 21.32 9.6 29.4 1214 NNE | 32 493 0.200 67.0 79 58 30.13 0002 29.96 1659 12.7
9/3/21 83.1 1304 77.3 0610 0.02 21.29 9.1 33.0 1731 NE | 35 491 0.206 67.3 76 58 30.15 0001 30.03 1731 12.7
9/2/21 85.3 1400 77.8 2358 0.00 21.27 8.9 30.1 1310 NE | 35 644 0.245 69.6 77 59 30.15 2248 29.99 0352 12.7
9/1/21 86.3 1218 73.2 0415 0.00 21.27 5.5 21.1 1434 NNE | 26 580 0.211 68.4 83 55 30.04 2351 29.92 1520 12.7
8/31/21 85.1 1412 71.3 0647 0.00 21.27 3.9 19.9 1445 NE | 40 533 0.189 67.9 87 55 30.03 0005 29.89 1547 12.7
8/30/21 85.9 1243 73.3 0418 0.01 21.27 4.2 19.9 1304 NE | 45 632 0.220 67.1 81 51 30.08 0002 29.95 1609 12.7
8/29/21 84.6 1224 74.7 2351 0.00 21.26 6.3 21.8 1149 NE | 47 642 0.229 67.8 83 54 30.09 2231 29.97 1549 12.8
Max 86.7 - 77.8 - 0.16 - 9.6 33.0 - - 644 0.245 70.5 89 63 30.16 - 30.06 - 12.8
Avg - - - - - - 7.2 - - - - - 68.3 - - - - - - -
Min 82.0 - 71.3 - 0.00 - 3.7 18.2 - - 283 0.110 66.5 73 51 30.03 - 29.89 - 12.7